sensor_id;sensor_type;location;lat;lon;timestamp;pressure;altitude;pressure_sealevel;temperature;humidity
38716;BME280;24833;49.324;8.694;2023-08-06T00:02:26;98989.66;;;15.79;100.00
38716;BME280;24833;49.324;8.694;2023-08-06T00:04:53;98995.25;;;15.78;100.00
38716;BME280;24833;49.324;8.694;2023-08-06T00:07:20;98986.38;;;15.77;100.00
38716;BME280;24833;49.324;8.694;2023-08-06T00:09:47;98982.03;;;15.76;100.00
38716;BME280;24833;49.324;8.694;2023-08-06T00:12:14;98986.88;;;15.74;100.00
38716;BME280;24833;49.324;8.694;2023-08-06T00:14:41;98980.94;;;15.72;100.00
38716;BME280;24833;49.324;8.694;2023-08-06T00:17:09;98986.31;;;15.72;100.00
38716;BME280;24833;49.324;8.694;2023-08-06T00:19:36;98979.28;;;15.71;100.00
38716;BME280;24833;49.324;8.694;2023-08-06T00:22:04;98980.94;;;15.72;100.00
38716;BME280;24833;49.324;8.694;2023-08-06T00:24:31;98973.09;;;15.71;100.00
38716;BME280;24833;49.324;8.694;2023-08-06T00:26:58;98967.69;;;15.71;100.00
38716;BME280;24833;49.324;8.694;2023-08-06T00:29:25;98969.34;;;15.72;100.00
38716;BME280;24833;49.324;8.694;2023-08-06T00:31:52;98963.38;;;15.70;100.00
38716;BME280;24833;49.324;8.694;2023-08-06T00:34:19;98955.31;;;15.70;100.00
38716;BME280;24833;49.324;8.694;2023-08-06T00:36:46;98967.69;;;15.71;100.00
38716;BME280;24833;49.324;8.694;2023-08-06T00:39:14;98951.81;;;15.69;100.00
38716;BME280;24833;49.324;8.694;2023-08-06T00:41:41;98952.63;;;15.70;100.00
38716;BME280;24833;49.324;8.694;2023-08-06T00:44:08;98948.31;;;15.69;100.00
38716;BME280;24833;49.324;8.694;2023-08-06T00:46:35;98947.81;;;15.72;100.00
38716;BME280;24833;49.324;8.694;2023-08-06T00:49:02;98948.63;;;15.72;100.00
38716;BME280;24833;49.324;8.694;2023-08-06T00:51:30;98946.50;;;15.74;100.00
38716;BME280;24833;49.324;8.694;2023-08-06T00:53:58;98943.53;;;15.76;100.00
38716;BME280;24833;49.324;8.694;2023-08-06T00:56:26;98945.97;;;15.77;100.00
38716;BME280;24833;49.324;8.694;2023-08-06T00:58:53;98947.84;;;15.77;100.00
38716;BME280;24833;49.324;8.694;2023-08-06T01:01:21;98934.97;;;15.79;100.00
38716;BME280;24833;49.324;8.694;2023-08-06T01:03:48;98933.09;;;15.79;100.00
38716;BME280;24833;49.324;8.694;2023-08-06T01:06:19;98932.28;;;15.79;100.00
38716;BME280;24833;49.324;8.694;2023-08-06T01:17:34;98912.44;;;15.85;100.00
38716;BME280;24833;49.324;8.694;2023-08-06T01:20:02;98906.00;;;15.86;100.00
38716;BME280;24833;49.324;8.694;2023-08-06T01:22:30;98914.06;;;15.86;100.00
38716;BME280;24833;49.324;8.694;2023-08-06T01:24:57;98915.69;;;15.87;100.00
38716;BME280;24833;49.324;8.694;2023-08-06T01:27:47;98904.38;;;15.85;100.00
38716;BME280;24833;49.324;8.694;2023-08-06T01:30:29;98898.97;;;15.85;100.00
38716;BME280;24833;49.324;8.694;2023-08-06T01:33:04;98907.06;;;15.85;100.00
38716;BME280;24833;49.324;8.694;2023-08-06T01:35:32;98898.97;;;15.85;100.00
38716;BME280;24833;49.324;8.694;2023-08-06T01:38:01;98888.22;;;15.85;100.00
38716;BME280;24833;49.324;8.694;2023-08-06T01:40:30;98894.41;;;15.86;100.00
38716;BME280;24833;49.324;8.694;2023-08-06T01:42:57;98885.00;;;15.88;100.00
38716;BME280;24833;49.324;8.694;2023-08-06T01:45:24;98874.22;;;15.88;100.00
38716;BME280;24833;49.324;8.694;2023-08-06T01:47:51;98888.50;;;15.89;100.00
38716;BME280;24833;49.324;8.694;2023-08-06T01:50:18;98872.34;;;15.89;100.00
38716;BME280;24833;49.324;8.694;2023-08-06T01:52:45;98875.84;;;15.89;100.00
38716;BME280;24833;49.324;8.694;2023-08-06T01:55:12;98863.47;;;15.88;100.00
38716;BME280;24833;49.324;8.694;2023-08-06T01:57:39;98873.41;;;15.88;100.00
38716;BME280;24833;49.324;8.694;2023-08-06T02:00:07;98874.75;;;15.85;100.00
38716;BME280;24833;49.324;8.694;2023-08-06T02:02:40;98882.50;;;15.82;100.00
38716;BME280;24833;49.324;8.694;2023-08-06T02:05:10;98880.63;;;15.82;100.00
38716;BME280;24833;49.324;8.694;2023-08-06T02:07:39;98878.44;;;15.79;100.00
38716;BME280;24833;49.324;8.694;2023-08-06T02:10:07;98867.09;;;15.77;100.00
38716;BME280;24833;49.324;8.694;2023-08-06T02:12:34;98868.44;;;15.74;100.00
38716;BME280;24833;49.324;8.694;2023-08-06T02:15:01;98863.53;;;15.71;100.00
38716;BME280;24833;49.324;8.694;2023-08-06T02:17:28;98861.34;;;15.68;100.00
38716;BME280;24833;49.324;8.694;2023-08-06T02:19:56;98848.97;;;15.67;100.00
38716;BME280;24833;49.324;8.694;2023-08-06T02:22:23;98859.72;;;15.67;100.00
38716;BME280;24833;49.324;8.694;2023-08-06T02:24:51;98858.66;;;15.68;100.00
38716;BME280;24833;49.324;8.694;2023-08-06T02:27:18;98871.31;;;15.68;100.00
38716;BME280;24833;49.324;8.694;2023-08-06T02:29:45;98869.16;;;15.70;100.00
38716;BME280;24833;49.324;8.694;2023-08-06T02:32:12;98857.59;;;15.69;100.00
38716;BME280;24833;49.324;8.694;2023-08-06T02:34:39;98860.03;;;15.71;100.00
38716;BME280;24833;49.324;8.694;2023-08-06T02:37:07;98867.06;;;15.72;100.00
38716;BME280;24833;49.324;8.694;2023-08-06T02:39:34;98868.69;;;15.73;100.00
38716;BME280;24833;49.324;8.694;2023-08-06T02:42:03;98859.53;;;15.74;100.00
38716;BME280;24833;49.324;8.694;2023-08-06T02:44:31;98871.38;;;15.73;100.00
38716;BME280;24833;49.324;8.694;2023-08-06T02:46:58;98855.78;;;15.75;100.00
38716;BME280;24833;49.324;8.694;2023-08-06T02:49:25;98861.97;;;15.75;100.00
38716;BME280;24833;49.324;8.694;2023-08-06T02:51:52;98860.34;;;15.74;100.00
38716;BME280;24833;49.324;8.694;2023-08-06T02:54:20;98855.78;;;15.75;100.00
38716;BME280;24833;49.324;8.694;2023-08-06T02:56:47;98862.78;;;15.76;100.00
38716;BME280;24833;49.324;8.694;2023-08-06T02:59:21;98860.09;;;15.76;100.00
38716;BME280;24833;49.324;8.694;2023-08-06T03:02:01;98863.84;;;15.75;100.00
38716;BME280;24833;49.324;8.694;2023-08-06T03:04:38;98863.03;;;15.74;100.00
38716;BME280;24833;49.324;8.694;2023-08-06T03:07:05;98862.50;;;15.72;100.00
38716;BME280;24833;49.324;8.694;2023-08-06T03:09:40;98867.06;;;15.72;100.00
38716;BME280;24833;49.324;8.694;2023-08-06T03:12:08;98853.00;;;15.70;100.00
38716;BME280;24833;49.324;8.694;2023-08-06T03:14:36;98852.22;;;15.69;100.00
38716;BME280;24833;49.324;8.694;2023-08-06T03:17:06;98847.09;;;15.68;100.00
38716;BME280;24833;49.324;8.694;2023-08-06T03:19:33;98842.78;;;15.67;100.00
38716;BME280;24833;49.324;8.694;2023-08-06T03:22:00;98841.16;;;15.66;100.00
38716;BME280;24833;49.324;8.694;2023-08-06T03:24:29;98842.22;;;15.65;100.00
38716;BME280;24833;49.324;8.694;2023-08-06T03:26:56;98832.25;;;15.65;100.00
38716;BME280;24833;49.324;8.694;2023-08-06T03:29:24;98836.00;;;15.64;100.00
38716;BME280;24833;49.324;8.694;2023-08-06T03:31:52;98833.31;;;15.64;100.00
38716;BME280;24833;49.324;8.694;2023-08-06T03:34:20;98839.53;;;15.65;100.00
38716;BME280;24833;49.324;8.694;2023-08-06T03:36:48;98835.44;;;15.62;100.00
38716;BME280;24833;49.324;8.694;2023-08-06T03:39:15;98843.75;;;15.61;100.00
38716;BME280;24833;49.324;8.694;2023-08-06T03:41:43;98835.66;;;15.61;100.00
38716;BME280;24833;49.324;8.694;2023-08-06T03:44:10;98841.31;;;15.59;100.00
38716;BME280;24833;49.324;8.694;2023-08-06T03:46:37;98845.88;;;15.59;100.00
38716;BME280;24833;49.324;8.694;2023-08-06T03:49:06;98844.22;;;15.58;100.00
38716;BME280;24833;49.324;8.694;2023-08-06T03:51:33;98839.09;;;15.56;100.00
38716;BME280;24833;49.324;8.694;2023-08-06T03:54:01;98843.13;;;15.53;100.00
38716;BME280;24833;49.324;8.694;2023-08-06T03:56:29;98847.94;;;15.51;100.00
38716;BME280;24833;49.324;8.694;2023-08-06T03:58:56;98848.19;;;15.50;100.00
38716;BME280;24833;49.324;8.694;2023-08-06T04:01:24;98845.75;;;15.48;100.00
38716;BME280;24833;49.324;8.694;2023-08-06T04:03:52;98843.56;;;15.45;100.00
38716;BME280;24833;49.324;8.694;2023-08-06T04:06:19;98845.66;;;15.43;100.00
38716;BME280;24833;49.324;8.694;2023-08-06T04:08:46;98839.72;;;15.41;100.00
38716;BME280;24833;49.324;8.694;2023-08-06T04:11:13;98851.00;;;15.38;100.00
38716;BME280;24833;49.324;8.694;2023-08-06T04:13:45;98844.50;;;15.34;100.00
38716;BME280;24833;49.324;8.694;2023-08-06T04:16:12;98847.44;;;15.33;100.00
38716;BME280;24833;49.324;8.694;2023-08-06T04:18:40;98843.34;;;15.30;100.00
38716;BME280;24833;49.324;8.694;2023-08-06T04:21:08;98835.78;;;15.27;100.00
38716;BME280;24833;49.324;8.694;2023-08-06T04:23:35;98842.72;;;15.23;100.00
38716;BME280;24833;49.324;8.694;2023-08-06T04:26:05;98844.84;;;15.21;100.00
38716;BME280;24833;49.324;8.694;2023-08-06T04:28:34;98837.25;;;15.18;100.00
38716;BME280;24833;49.324;8.694;2023-08-06T04:31:01;98841.53;;;15.14;100.00
38716;BME280;24833;49.324;8.694;2023-08-06T04:33:31;98846.34;;;15.12;100.00
38716;BME280;24833;49.324;8.694;2023-08-06T04:36:02;98851.41;;;15.08;100.00
38716;BME280;24833;49.324;8.694;2023-08-06T04:38:29;98853.28;;;15.08;100.00
38716;BME280;24833;49.324;8.694;2023-08-06T04:40:58;98847.56;;;15.04;100.00
38716;BME280;24833;49.324;8.694;2023-08-06T04:43:25;98844.56;;;15.01;100.00
38716;BME280;24833;49.324;8.694;2023-08-06T04:45:55;98849.41;;;14.98;100.00
38716;BME280;24833;49.324;8.694;2023-08-06T04:48:23;98857.94;;;14.95;100.00
38716;BME280;24833;49.324;8.694;2023-08-06T04:50:50;98860.06;;;14.93;100.00
38716;BME280;24833;49.324;8.694;2023-08-06T04:53:18;98859.50;;;14.91;100.00
38716;BME280;24833;49.324;8.694;2023-08-06T04:55:45;98857.03;;;14.90;100.00
38716;BME280;24833;49.324;8.694;2023-08-06T04:58:12;98854.59;;;14.88;100.00
38716;BME280;24833;49.324;8.694;2023-08-06T05:00:40;98852.97;;;14.87;100.00
38716;BME280;24833;49.324;8.694;2023-08-06T05:03:07;98854.06;;;14.86;100.00
38716;BME280;24833;49.324;8.694;2023-08-06T05:05:34;98869.59;;;14.84;100.00
38716;BME280;24833;49.324;8.694;2023-08-06T05:08:02;98842.16;;;14.82;100.00
38716;BME280;24833;49.324;8.694;2023-08-06T05:10:29;98857.47;;;14.82;100.00
38716;BME280;24833;49.324;8.694;2023-08-06T05:12:56;98851.28;;;14.81;100.00
38716;BME280;24833;49.324;8.694;2023-08-06T05:15:23;98860.41;;;14.80;100.00
38716;BME280;24833;49.324;8.694;2023-08-06T05:17:52;98848.03;;;14.79;100.00
38716;BME280;24833;49.324;8.694;2023-08-06T05:20:20;98854.22;;;14.80;100.00
38716;BME280;24833;49.324;8.694;2023-08-06T05:22:47;98858.78;;;14.79;100.00
38716;BME280;24833;49.324;8.694;2023-08-06T05:25:14;98848.03;;;14.79;100.00
38716;BME280;24833;49.324;8.694;2023-08-06T05:27:41;98850.72;;;14.79;100.00
38716;BME280;24833;49.324;8.694;2023-08-06T05:30:09;98849.66;;;14.80;100.00
38716;BME280;24833;49.324;8.694;2023-08-06T05:32:37;98844.28;;;14.80;100.00
38716;BME280;24833;49.324;8.694;2023-08-06T05:35:04;98847.22;;;14.79;100.00
38716;BME280;24833;49.324;8.694;2023-08-06T05:37:31;98853.88;;;14.76;100.00
38716;BME280;24833;49.324;8.694;2023-08-06T05:39:58;98849.00;;;14.73;100.00
38716;BME280;24833;49.324;8.694;2023-08-06T05:42:25;98852.16;;;14.70;100.00
38716;BME280;24833;49.324;8.694;2023-08-06T05:44:54;98849.47;;;14.70;100.00
38716;BME280;24833;49.324;8.694;2023-08-06T05:47:21;98855.91;;;14.69;100.00
38716;BME280;24833;49.324;8.694;2023-08-06T05:49:48;98854.56;;;14.66;100.00
38716;BME280;24833;49.324;8.694;2023-08-06T05:52:15;98864.97;;;14.63;100.00
38716;BME280;24833;49.324;8.694;2023-08-06T05:54:42;98857.16;;;14.61;100.00
38716;BME280;24833;49.324;8.694;2023-08-06T05:57:09;98869.44;;;14.57;100.00
38716;BME280;24833;49.324;8.694;2023-08-06T05:59:36;98868.06;;;14.55;100.00
38716;BME280;24833;49.324;8.694;2023-08-06T06:02:04;98865.63;;;14.53;100.00
38716;BME280;24833;49.324;8.694;2023-08-06T06:04:31;98868.56;;;14.52;100.00
38716;BME280;24833;49.324;8.694;2023-08-06T06:06:58;98857.22;;;14.50;100.00
38716;BME280;24833;49.324;8.694;2023-08-06T06:09:25;98861.78;;;14.49;100.00
38716;BME280;24833;49.324;8.694;2023-08-06T06:11:52;98871.16;;;14.47;100.00
38716;BME280;24833;49.324;8.694;2023-08-06T06:14:19;98865.78;;;14.47;100.00
38716;BME280;24833;49.324;8.694;2023-08-06T06:16:46;98866.81;;;14.45;100.00
38716;BME280;24833;49.324;8.694;2023-08-06T06:19:14;98864.34;;;14.44;100.00
38716;BME280;24833;49.324;8.694;2023-08-06T06:21:40;98864.34;;;14.44;100.00
38716;BME280;24833;49.324;8.694;2023-08-06T06:24:08;98858.16;;;14.43;100.00
38716;BME280;24833;49.324;8.694;2023-08-06T06:26:35;98869.97;;;14.42;100.00
38716;BME280;24833;49.324;8.694;2023-08-06T06:29:02;98877.78;;;14.44;100.00
38716;BME280;24833;49.324;8.694;2023-08-06T06:31:31;98869.97;;;14.42;100.00
38716;BME280;24833;49.324;8.694;2023-08-06T06:33:58;98881.53;;;14.43;100.00
38716;BME280;24833;49.324;8.694;2023-08-06T06:36:25;98882.34;;;14.43;100.00
38716;BME280;24833;49.324;8.694;2023-08-06T06:38:53;98871.03;;;14.41;100.00
38716;BME280;24833;49.324;8.694;2023-08-06T06:41:20;98883.66;;;14.41;100.00
38716;BME280;24833;49.324;8.694;2023-08-06T06:43:47;98892.53;;;14.41;100.00
38716;BME280;24833;49.324;8.694;2023-08-06T06:46:14;98887.97;;;14.42;100.00
38716;BME280;24833;49.324;8.694;2023-08-06T06:48:41;98883.41;;;14.42;100.00
38716;BME280;24833;49.324;8.694;2023-08-06T06:51:08;98878.84;;;14.43;100.00
38716;BME280;24833;49.324;8.694;2023-08-06T06:53:35;98882.59;;;14.42;100.00
38716;BME280;24833;49.324;8.694;2023-08-06T06:56:04;98878.03;;;14.42;100.00
38716;BME280;24833;49.324;8.694;2023-08-06T06:58:32;98874.28;;;14.43;100.00
38716;BME280;24833;49.324;8.694;2023-08-06T07:00:59;98875.34;;;14.42;100.00
38716;BME280;24833;49.324;8.694;2023-08-06T07:03:27;98882.34;;;14.43;100.00
38716;BME280;24833;49.324;8.694;2023-08-06T07:05:58;98867.03;;;14.44;100.00
38716;BME280;24833;49.324;8.694;2023-08-06T07:08:28;98872.78;;;14.48;100.00
38716;BME280;24833;49.324;8.694;2023-08-06T07:11:06;98870.34;;;14.46;100.00
38716;BME280;24833;49.324;8.694;2023-08-06T07:13:34;98869.84;;;14.49;100.00
38716;BME280;24833;49.324;8.694;2023-08-06T07:16:01;98870.19;;;14.53;100.00
38716;BME280;24833;49.324;8.694;2023-08-06T07:18:29;98868.06;;;14.55;100.00
38716;BME280;24833;49.324;8.694;2023-08-06T07:20:56;98873.44;;;14.55;100.00
38716;BME280;24833;49.324;8.694;2023-08-06T07:23:25;98888.50;;;14.56;100.00
38716;BME280;24833;49.324;8.694;2023-08-06T07:25:52;98871.31;;;14.57;100.00
38716;BME280;24833;49.324;8.694;2023-08-06T07:28:19;98875.66;;;14.58;100.00
38716;BME280;24833;49.324;8.694;2023-08-06T07:30:47;98878.91;;;14.60;100.00
38716;BME280;24833;49.324;8.694;2023-08-06T07:33:14;98873.53;;;14.60;100.00
38716;BME280;24833;49.324;8.694;2023-08-06T07:35:41;98875.16;;;14.61;100.00
38716;BME280;24833;49.324;8.694;2023-08-06T07:38:10;98874.91;;;14.62;100.00
38716;BME280;24833;49.324;8.694;2023-08-06T07:40:38;98880.84;;;14.64;100.00
38716;BME280;24833;49.324;8.694;2023-08-06T07:43:05;98877.09;;;14.65;100.00
38716;BME280;24833;49.324;8.694;2023-08-06T07:45:34;98881.44;;;14.66;100.00
38716;BME280;24833;49.324;8.694;2023-08-06T07:48:03;98880.34;;;14.67;100.00
38716;BME280;24833;49.324;8.694;2023-08-06T07:50:30;98876.59;;;14.68;100.00
38716;BME280;24833;49.324;8.694;2023-08-06T07:52:57;98881.72;;;14.70;100.00
38716;BME280;24833;49.324;8.694;2023-08-06T07:55:25;98889.78;;;14.70;100.00
38716;BME280;24833;49.324;8.694;2023-08-06T07:57:53;98879.03;;;14.70;100.00
38716;BME280;24833;49.324;8.694;2023-08-06T08:00:21;98879.03;;;14.70;100.00
38716;BME280;24833;49.324;8.694;2023-08-06T08:02:48;98886.28;;;14.69;100.00
38716;BME280;24833;49.324;8.694;2023-08-06T08:05:15;98883.84;;;14.68;100.00
38716;BME280;24833;49.324;8.694;2023-08-06T08:07:42;98887.59;;;14.67;100.00
38716;BME280;24833;49.324;8.694;2023-08-06T08:10:11;98886.78;;;14.66;100.00
38716;BME280;24833;49.324;8.694;2023-08-06T08:12:38;98886.00;;;14.66;100.00
38716;BME280;24833;49.324;8.694;2023-08-06T08:15:05;98877.94;;;14.66;100.00
38716;BME280;24833;49.324;8.694;2023-08-06T08:17:33;98881.69;;;14.65;100.00
38716;BME280;24833;49.324;8.694;2023-08-06T08:20:01;98886.47;;;14.63;100.00
38716;BME280;24833;49.324;8.694;2023-08-06T08:22:28;98878.41;;;14.63;100.00
38716;BME280;24833;49.324;8.694;2023-08-06T08:24:55;98874.91;;;14.62;100.00
38716;BME280;24833;49.324;8.694;2023-08-06T08:27:22;98868.25;;;14.65;100.00
38716;BME280;24833;49.324;8.694;2023-08-06T08:29:49;98874.44;;;14.65;100.00
38716;BME280;24833;49.324;8.694;2023-08-06T08:32:16;98865.03;;;14.68;100.00
38716;BME280;24833;49.324;8.694;2023-08-06T08:34:44;98865.59;;;14.70;100.00
38716;BME280;24833;49.324;8.694;2023-08-06T08:37:11;98866.75;;;14.74;100.00
38716;BME280;24833;49.324;8.694;2023-08-06T08:39:38;98867.06;;;14.78;100.00
38716;BME280;24833;49.324;8.694;2023-08-06T08:42:06;98863.09;;;14.80;100.00
38716;BME280;24833;49.324;8.694;2023-08-06T08:44:34;98868.22;;;14.82;100.00
38716;BME280;24833;49.324;8.694;2023-08-06T08:47:06;98859.91;;;14.83;100.00
38716;BME280;24833;49.324;8.694;2023-08-06T08:49:36;98863.19;;;14.85;100.00
38716;BME280;24833;49.324;8.694;2023-08-06T08:52:04;98859.41;;;14.86;100.00
38716;BME280;24833;49.324;8.694;2023-08-06T08:54:38;98857.28;;;14.88;100.00
38716;BME280;24833;49.324;8.694;2023-08-06T08:57:05;98855.16;;;14.90;100.00
38716;BME280;24833;49.324;8.694;2023-08-06T08:59:33;98856.31;;;14.94;100.00
38716;BME280;24833;49.324;8.694;2023-08-06T09:02:01;98859.34;;;14.98;100.00
38716;BME280;24833;49.324;8.694;2023-08-06T09:04:31;98873.91;;;15.02;100.00
38716;BME280;24833;49.324;8.694;2023-08-06T09:07:01;98864.28;;;15.06;100.00
38716;BME280;24833;49.324;8.694;2023-08-06T09:09:33;98849.53;;;15.09;100.00
38716;BME280;24833;49.324;8.694;2023-08-06T09:12:02;98860.84;;;15.11;100.00
38716;BME280;24833;49.324;8.694;2023-08-06T09:14:32;98864.13;;;15.13;100.00
38716;BME280;24833;49.324;8.694;2023-08-06T09:17:00;98864.13;;;15.13;100.00
38716;BME280;24833;49.324;8.694;2023-08-06T09:19:28;98861.41;;;15.13;100.00
38716;BME280;24833;49.324;8.694;2023-08-06T09:21:56;98872.19;;;15.13;100.00
38716;BME280;24833;49.324;8.694;2023-08-06T09:24:23;98867.88;;;15.12;100.00
38716;BME280;24833;49.324;8.694;2023-08-06T09:26:51;98878.63;;;15.12;100.00
38716;BME280;24833;49.324;8.694;2023-08-06T09:29:18;98861.16;;;15.14;100.00
38716;BME280;24833;49.324;8.694;2023-08-06T09:31:50;98870.03;;;15.15;100.00
38716;BME280;24833;49.324;8.694;2023-08-06T09:34:22;98873.88;;;15.19;100.00
38716;BME280;24833;49.324;8.694;2023-08-06T09:36:54;98855.09;;;15.24;100.00
38716;BME280;24833;49.324;8.694;2023-08-06T09:39:27;98845.47;;;15.28;100.00
38716;BME280;24833;49.324;8.694;2023-08-06T09:42:00;98848.25;;;15.33;100.00
38716;BME280;24833;49.324;8.694;2023-08-06T09:44:31;98855.06;;;15.41;100.00
38716;BME280;24833;49.324;8.694;2023-08-06T09:47:01;98857.81;;;15.46;100.00
38716;BME280;24833;49.324;8.694;2023-08-06T09:49:41;98856.03;;;15.51;100.00
38716;BME280;24833;49.324;8.694;2023-08-06T09:52:13;98846.91;;;15.58;100.00
38716;BME280;24833;49.324;8.694;2023-08-06T09:54:43;98849.59;;;15.58;100.00
38716;BME280;24833;49.324;8.694;2023-08-06T09:57:12;98852.56;;;15.56;100.00
38716;BME280;24833;49.324;8.694;2023-08-06T09:59:39;98858.44;;;15.53;100.00
38716;BME280;24833;49.324;8.694;2023-08-06T10:02:13;98861.06;;;15.48;100.00
38716;BME280;24833;49.324;8.694;2023-08-06T10:04:44;98878.47;;;15.40;100.00
38716;BME280;24833;49.324;8.694;2023-08-06T10:07:21;98877.25;;;15.31;100.00
38716;BME280;24833;49.324;8.694;2023-08-06T10:09:50;98872.31;;;15.23;100.00
38716;BME280;24833;49.324;8.694;2023-08-06T10:12:18;98885.38;;;15.14;100.00
38716;BME280;24833;49.324;8.694;2023-08-06T10:14:48;98891.47;;;15.10;100.00
38716;BME280;24833;49.324;8.694;2023-08-06T10:17:16;98892.47;;;15.04;100.00
38716;BME280;24833;49.324;8.694;2023-08-06T10:19:44;98878.97;;;14.98;100.00
38716;BME280;24833;49.324;8.694;2023-08-06T10:22:17;98886.94;;;14.93;100.00
38716;BME280;24833;49.324;8.694;2023-08-06T10:24:59;98879.94;;;14.92;100.00
38716;BME280;24833;49.324;8.694;2023-08-06T10:27:41;98883.13;;;14.89;100.00
38716;BME280;24833;49.324;8.694;2023-08-06T10:30:31;98878.25;;;14.86;100.00
38716;BME280;24833;49.324;8.694;2023-08-06T10:33:03;98880.13;;;14.86;100.00
38716;BME280;24833;49.324;8.694;2023-08-06T10:36:01;98879.31;;;14.85;100.00
38716;BME280;24833;49.324;8.694;2023-08-06T10:38:28;98879.88;;;14.87;100.00
38716;BME280;24833;49.324;8.694;2023-08-06T10:41:01;98885.25;;;14.87;100.00
38716;BME280;24833;49.324;8.694;2023-08-06T10:43:34;98894.94;;;14.88;100.00
38716;BME280;24833;49.324;8.694;2023-08-06T10:46:03;98890.06;;;14.85;100.00
38716;BME280;24833;49.324;8.694;2023-08-06T10:48:37;98898.13;;;14.85;100.00
38716;BME280;24833;49.324;8.694;2023-08-06T10:51:09;98909.09;;;14.84;100.00
38716;BME280;24833;49.324;8.694;2023-08-06T10:53:47;98908.28;;;14.83;100.00
38716;BME280;24833;49.324;8.694;2023-08-06T10:56:19;98916.84;;;14.80;100.00
38716;BME280;24833;49.324;8.694;2023-08-06T10:58:51;98917.91;;;14.79;100.00
38716;BME280;24833;49.324;8.694;2023-08-06T11:01:18;98916.28;;;14.78;100.00
38716;BME280;24833;49.324;8.694;2023-08-06T11:03:46;98921.31;;;14.75;100.00
38716;BME280;24833;49.324;8.694;2023-08-06T11:06:21;98916.44;;;14.71;100.00
38716;BME280;24833;49.324;8.694;2023-08-06T11:08:54;98909.91;;;14.67;100.00
38716;BME280;24833;49.324;8.694;2023-08-06T11:11:23;98922.78;;;14.65;100.00
38716;BME280;24833;49.324;8.694;2023-08-06T11:13:51;98921.63;;;14.61;100.00
38716;BME280;24833;49.324;8.694;2023-08-06T11:16:23;98926.69;;;14.58;100.00
38716;BME280;24833;49.324;8.694;2023-08-06T11:18:54;98925.03;;;14.57;100.00
38716;BME280;24833;49.324;8.694;2023-08-06T11:21:23;98936.03;;;14.55;100.00
38716;BME280;24833;49.324;8.694;2023-08-06T11:23:52;98938.41;;;14.52;100.00
38716;BME280;24833;49.324;8.694;2023-08-06T11:26:21;98942.63;;;14.48;100.00
38716;BME280;24833;49.324;8.694;2023-08-06T11:28:50;98939.34;;;14.45;100.00
38716;BME280;24833;49.324;8.694;2023-08-06T11:31:23;98939.81;;;14.42;100.00
38716;BME280;24833;49.324;8.694;2023-08-06T11:33:54;98952.69;;;14.40;100.00
38716;BME280;24833;49.324;8.694;2023-08-06T11:36:39;98944.06;;;14.38;100.00
38716;BME280;24833;49.324;8.694;2023-08-06T11:39:07;98960.63;;;14.35;100.00
38716;BME280;24833;49.324;8.694;2023-08-06T11:41:36;98961.13;;;14.32;100.00
38716;BME280;24833;49.324;8.694;2023-08-06T11:44:11;98966.16;;;14.29;100.00
38716;BME280;24833;49.324;8.694;2023-08-06T11:46:55;98964.78;;;14.26;100.00
38716;BME280;24833;49.324;8.694;2023-08-06T11:49:46;98985.44;;;14.26;100.00
38716;BME280;24833;49.324;8.694;2023-08-06T11:52:24;98987.31;;;14.25;100.00
38716;BME280;24833;49.324;8.694;2023-08-06T11:55:06;98985.66;;;14.24;100.00
38716;BME280;24833;49.324;8.694;2023-08-06T11:57:38;98999.31;;;14.23;100.00
38716;BME280;24833;49.324;8.694;2023-08-06T12:00:13;99003.44;;;14.25;100.00
38716;BME280;24833;49.324;8.694;2023-08-06T12:02:45;98992.09;;;14.23;100.00
38716;BME280;24833;49.324;8.694;2023-08-06T12:05:14;99005.50;;;14.23;100.00
38716;BME280;24833;49.324;8.694;2023-08-06T12:07:48;99002.81;;;14.23;100.00
38716;BME280;24833;49.324;8.694;2023-08-06T12:10:16;98998.28;;;14.24;100.00
38716;BME280;24833;49.324;8.694;2023-08-06T12:12:44;99001.78;;;14.24;100.00
38716;BME280;24833;49.324;8.694;2023-08-06T12:15:11;99000.75;;;14.25;100.00
38716;BME280;24833;49.324;8.694;2023-08-06T12:17:38;99010.44;;;14.26;100.00
38716;BME280;24833;49.324;8.694;2023-08-06T12:20:07;99021.16;;;14.26;100.00
38716;BME280;24833;49.324;8.694;2023-08-06T12:22:35;99017.44;;;14.27;100.00
38716;BME280;24833;49.324;8.694;2023-08-06T12:25:10;99028.97;;;14.28;100.00
38716;BME280;24833;49.324;8.694;2023-08-06T12:27:43;99038.41;;;14.30;100.00
38716;BME280;24833;49.324;8.694;2023-08-06T12:30:12;99042.16;;;14.29;100.00
38716;BME280;24833;49.324;8.694;2023-08-06T12:32:39;99039.22;;;14.31;100.00
38716;BME280;24833;49.324;8.694;2023-08-06T12:35:08;99046.25;;;14.32;100.00
38716;BME280;24833;49.324;8.694;2023-08-06T12:37:35;99049.75;;;14.32;100.00
38716;BME280;24833;49.324;8.694;2023-08-06T12:40:03;99051.97;;;14.35;100.00
38716;BME280;24833;49.324;8.694;2023-08-06T12:42:50;99058.97;;;14.36;100.00
38716;BME280;24833;49.324;8.694;2023-08-06T12:45:19;99047.75;;;14.39;100.00
38716;BME280;24833;49.324;8.694;2023-08-06T12:47:48;99058.25;;;14.41;100.00
38716;BME280;24833;49.324;8.694;2023-08-06T12:50:17;99060.69;;;14.42;100.00
38716;BME280;24833;49.324;8.694;2023-08-06T12:52:44;99063.13;;;14.44;100.00
38716;BME280;24833;49.324;8.694;2023-08-06T12:55:12;99084.41;;;14.45;100.00
38716;BME280;24833;49.324;8.694;2023-08-06T12:57:39;99082.78;;;14.44;100.00
38716;BME280;24833;49.324;8.694;2023-08-06T13:00:24;99090.00;;;14.44;100.00
38716;BME280;24833;49.324;8.694;2023-08-06T13:02:52;99092.69;;;14.44;100.00
38716;BME280;24833;49.324;8.694;2023-08-06T13:05:19;99086.28;;;14.45;100.00
38716;BME280;24833;49.324;8.694;2023-08-06T13:07:46;99087.09;;;14.45;100.00
38716;BME280;24833;49.324;8.694;2023-08-06T13:10:13;99100.53;;;14.45;100.00